createdAt,value
2019-04-21T00:00:56.776Z,95790.54
2019-04-21T00:06:12.078Z,95791.80
2019-04-21T00:11:16.173Z,95799.27
2019-04-21T00:16:06.881Z,95795.34
2019-04-21T00:21:15.209Z,95792.84
2019-04-21T00:26:31.799Z,95785.19
2019-04-21T00:31:30.859Z,95781.95
2019-04-21T00:36:25.526Z,95778.44
2019-04-21T00:41:43.777Z,95777.27
2019-04-21T00:46:40.305Z,95771.31
2019-04-21T00:52:07.240Z,95767.70
2019-04-21T00:57:05.653Z,95772.77
2019-04-21T01:01:59.717Z,95771.66
2019-04-21T01:07:11.102Z,95767.20
2019-04-21T01:12:09.835Z,95760.08
2019-04-21T01:17:17.887Z,95759.02
2019-04-21T01:21:57.885Z,95746.89
2019-04-21T01:27:11.344Z,95745.31
2019-04-21T01:32:29.629Z,95740.63
2019-04-21T01:37:34.407Z,95739.25
2019-04-21T01:42:48.069Z,95731.73
2019-04-21T01:48:05.750Z,95727.97
2019-04-21T01:53:23.906Z,95725.61
2019-04-21T01:58:25.501Z,95724.77
2019-04-21T02:08:41.537Z,95713.28
2019-04-21T02:13:53.499Z,95711.91
2019-04-21T02:18:53.133Z,95711.31
2019-04-21T02:24:01.633Z,95703.74
2019-04-21T02:29:10.155Z,95707.11
2019-04-21T02:34:32.292Z,95712.98
2019-04-21T02:39:19.255Z,95704.48
2019-04-21T02:44:26.467Z,95703.90
2019-04-21T02:49:37.765Z,95707.85
2019-04-21T02:59:44.222Z,95691.34
2019-04-21T03:09:53.593Z,95699.47
2019-04-21T03:20:03.081Z,95692.64
2019-04-21T03:30:45.031Z,95686.42
2019-04-21T03:35:43.885Z,95687.36
2019-04-21T03:50:28.987Z,95681.91
2019-04-21T04:01:02.897Z,95689.22
2019-04-21T04:06:09.576Z,95679.01
2019-04-21T04:31:41.593Z,95674.01
2019-04-21T04:42:12.599Z,95669.36
2019-04-21T04:47:15.526Z,95671.19
2019-04-21T04:57:21.820Z,95666.96
2019-04-21T05:02:27.888Z,95666.82
2019-04-21T05:07:25.121Z,95672.63
2019-04-21T05:12:27.135Z,95665.08
2019-04-21T05:22:31.028Z,95658.34
2019-04-21T05:27:39.971Z,95655.77
2019-04-21T05:33:09.196Z,95653.03
2019-04-21T05:38:03.124Z,95652.98
2019-04-21T05:43:03.473Z,95649.00
2019-04-21T05:48:19.205Z,95649.31
2019-04-21T05:53:24.954Z,95637.34
2019-04-21T05:58:25.819Z,95635.23
2019-04-21T06:03:34.024Z,95632.55
2019-04-21T06:08:31.879Z,95626.16
2019-04-21T06:13:43.815Z,95623.92
2019-04-21T06:23:43.595Z,95611.04
2019-04-21T06:33:50.491Z,95613.54
2019-04-21T06:44:08.211Z,95604.88
2019-04-21T06:49:03.044Z,95600.64
2019-04-21T06:54:09.441Z,95601.89
2019-04-21T06:59:09.598Z,95604.59
2019-04-21T07:04:25.336Z,95594.03
2019-04-21T07:09:26.668Z,95589.59
2019-04-21T07:14:40.603Z,95584.91
2019-04-21T07:19:35.363Z,95583.58
2019-04-21T07:24:37.288Z,95586.92
2019-04-21T07:29:52.561Z,95578.49
2019-04-21T07:34:44.862Z,95577.19
2019-04-21T07:39:51.219Z,95566.97
2019-04-21T07:44:49.458Z,95571.52
2019-04-21T07:50:14.933Z,95567.11
2019-04-21T08:00:29.274Z,95557.83
2019-04-21T08:05:31.371Z,95558.25
2019-04-21T08:10:33.304Z,95549.50
2019-04-21T08:15:40.287Z,95546.50
2019-04-21T08:20:41.855Z,95544.27
2019-04-21T08:26:04.912Z,95532.11
2019-04-21T08:30:54.361Z,95534.40
2019-04-21T08:36:16.211Z,95535.61
2019-04-21T08:41:01.570Z,95521.08
2019-04-21T08:46:09.192Z,95517.82
2019-04-21T08:51:21.045Z,95511.75
2019-04-21T08:56:34.302Z,95504.54
2019-04-21T09:01:43.127Z,95505.33
2019-04-21T09:11:50.895Z,95491.75
2019-04-21T09:16:53.305Z,95484.05
2019-04-21T09:22:00.525Z,95464.45
2019-04-21T09:26:57.320Z,95463.96
2019-04-21T09:31:50.280Z,95460.53
2019-04-21T09:37:09.931Z,95449.23
2019-04-21T09:41:59.135Z,95440.09
2019-04-21T09:47:03.387Z,95434.56
2019-04-21T09:52:13.760Z,95440.77
2019-04-21T09:57:24.284Z,95431.94
2019-04-21T10:02:21.307Z,95424.00
2019-04-21T10:07:26.545Z,95409.52
2019-04-21T10:12:23.528Z,95406.77
2019-04-21T10:17:27.544Z,95387.18
2019-04-21T10:22:30.951Z,95389.67
2019-04-21T10:27:34.871Z,95375.79
2019-04-21T10:32:40.508Z,95371.70
2019-04-21T10:37:54.123Z,95365.95
2019-04-21T10:42:48.104Z,95358.43
2019-04-21T10:47:50.741Z,95361.23
2019-04-21T10:53:01.183Z,95358.09
2019-04-21T10:58:20.277Z,95352.11
2019-04-21T11:03:29.082Z,95346.00
2019-04-21T11:08:37.513Z,95342.94
2019-04-21T11:13:40.937Z,95332.41
2019-04-21T11:18:44.099Z,95328.45
2019-04-21T11:23:48.020Z,95320.28
2019-04-21T11:28:50.816Z,95313.52
2019-04-21T11:33:53.435Z,95310.59
2019-04-21T11:39:27.293Z,95310.59
2019-04-21T11:44:22.591Z,95309.42
2019-04-21T11:49:24.285Z,95299.46
2019-04-21T11:54:28.795Z,95290.86
2019-04-21T11:59:31.545Z,95292.22
2019-04-21T12:04:33.942Z,95293.95
2019-04-21T12:09:37.540Z,95283.31
2019-04-21T12:14:40.031Z,95284.05
2019-04-21T12:19:42.895Z,95272.62
2019-04-21T12:24:45.428Z,95274.47
2019-04-21T12:29:48.240Z,95268.82
2019-04-21T12:34:53.445Z,95270.28
2019-04-21T12:39:56.879Z,95258.02
2019-04-21T12:44:59.470Z,95247.88
2019-04-21T12:50:02.758Z,95242.66
2019-04-21T12:55:05.787Z,95247.73
2019-04-21T13:00:13.061Z,95247.78
2019-04-21T13:05:15.984Z,95235.45
2019-04-21T13:10:18.295Z,95236.42
2019-04-21T13:15:21.776Z,95225.50
2019-04-21T13:20:25.409Z,95218.55
2019-04-21T13:25:27.949Z,95206.53
2019-04-21T13:30:30.610Z,95204.77
2019-04-21T13:35:35.223Z,95207.66
2019-04-21T13:41:04.935Z,95205.69
2019-04-21T13:45:57.532Z,95201.61
2019-04-21T13:51:01.431Z,95209.09
2019-04-21T13:56:04.708Z,95204.68
2019-04-21T14:01:07.736Z,95211.25
2019-04-21T14:06:10.413Z,95206.81
2019-04-21T14:11:21.416Z,95206.73
2019-04-21T14:16:24.449Z,95205.47
2019-04-21T14:21:27.269Z,95196.05
2019-04-21T14:26:30.006Z,95186.70
2019-04-21T14:31:32.389Z,95180.00
2019-04-21T14:36:34.947Z,95177.02
2019-04-21T14:41:38.054Z,95148.27
2019-04-21T14:46:42.823Z,95161.13
2019-04-21T14:51:56.874Z,95158.83
2019-04-21T14:56:59.404Z,95154.73
2019-04-21T15:02:02.179Z,95141.84
2019-04-21T15:07:05.582Z,95143.31
2019-04-21T15:12:08.149Z,95148.22
2019-04-21T15:17:10.333Z,95149.23
2019-04-21T15:22:12.728Z,95146.12
2019-04-21T15:27:14.868Z,95141.48
2019-04-21T15:32:17.033Z,95142.83
2019-04-21T15:37:19.956Z,95139.39
2019-04-21T15:42:24.308Z,95134.68
2019-04-21T15:47:28.282Z,95135.54
2019-04-21T15:52:31.846Z,95124.23
2019-04-21T15:57:42.657Z,95123.59
2019-04-21T16:02:46.790Z,95122.00
2019-04-21T16:07:52.004Z,95113.38
2019-04-21T16:12:56.019Z,95116.48
2019-04-21T16:17:59.380Z,95120.52
2019-04-21T16:23:02.308Z,95112.54
2019-04-21T16:28:05.586Z,95104.74
2019-04-21T16:33:08.237Z,95115.42
2019-04-21T16:38:11.276Z,95117.45
2019-04-21T16:43:14.325Z,95113.16
2019-04-21T16:48:16.984Z,95108.59
2019-04-21T16:53:24.006Z,95104.31
2019-04-21T16:58:34.694Z,95111.29
2019-04-21T17:03:37.089Z,95111.97
2019-04-21T17:08:39.657Z,95113.54
2019-04-21T17:13:43.488Z,95119.32
2019-04-21T17:18:57.502Z,95123.11
2019-04-21T17:23:50.600Z,95127.52
2019-04-21T17:28:54.332Z,95129.25
2019-04-21T17:34:02.024Z,95140.83
2019-04-21T17:39:02.276Z,95144.47
2019-04-21T17:44:06.758Z,95145.75
2019-04-21T17:49:10.851Z,95144.11
2019-04-21T17:54:24.515Z,95146.81
2019-04-21T17:59:52.302Z,95153.59
2019-04-21T18:04:41.427Z,95159.80
2019-04-21T18:09:56.398Z,95165.17
2019-04-21T18:14:32.777Z,95168.89
2019-04-21T18:19:39.764Z,95175.32
2019-04-21T18:24:48.885Z,95183.43
2019-04-21T18:29:46.388Z,95187.29
2019-04-21T18:35:09.799Z,95192.09
2019-04-21T18:40:21.045Z,95188.34
2019-04-21T18:50:41.731Z,95187.66
2019-04-21T18:55:45.319Z,95193.48
2019-04-21T19:00:44.211Z,95193.17
2019-04-21T19:05:53.988Z,95185.59
2019-04-21T19:11:14.854Z,95194.33
2019-04-21T19:16:28.339Z,95197.14
2019-04-21T19:21:17.282Z,95198.16
2019-04-21T19:31:32.233Z,95200.22
2019-04-21T19:36:13.159Z,95210.64
2019-04-21T19:41:30.959Z,95214.06
2019-04-21T19:46:34.470Z,95217.28
2019-04-21T19:51:37.772Z,95215.20
2019-04-21T19:56:28.052Z,95219.45
2019-04-21T20:01:31.684Z,95213.33
2019-04-21T20:06:50.253Z,95215.97
2019-04-21T20:11:53.511Z,95212.94
2019-04-21T20:16:56.694Z,95211.95
2019-04-21T20:21:47.095Z,95222.32
2019-04-21T20:26:59.977Z,95220.27
2019-04-21T20:32:22.424Z,95224.89
2019-04-21T20:37:15.009Z,95230.21
2019-04-21T20:42:19.425Z,95226.87
2019-04-21T20:47:16.000Z,95229.02
2019-04-21T20:52:29.478Z,95230.47
2019-04-21T20:57:30.099Z,95226.06
2019-04-21T21:02:37.015Z,95213.69
2019-04-21T21:12:51.212Z,95214.76
2019-04-21T21:17:52.635Z,95221.97
2019-04-21T21:22:47.433Z,95224.66
2019-04-21T21:27:50.724Z,95224.34
2019-04-21T21:33:10.496Z,95220.22
2019-04-21T21:38:08.381Z,95220.66
2019-04-21T21:42:49.413Z,95222.34
2019-04-21T21:48:11.535Z,95229.94
2019-04-21T21:53:04.273Z,95222.84
2019-04-21T21:58:02.432Z,95221.06
2019-04-21T22:03:14.756Z,95223.52
2019-04-21T22:08:07.836Z,95222.30
2019-04-21T22:13:14.754Z,95220.84
2019-04-21T22:18:31.514Z,95216.51
2019-04-21T22:23:31.783Z,95213.82
2019-04-21T22:28:22.160Z,95212.12
2019-04-21T22:33:25.943Z,95212.48
2019-04-21T22:38:40.908Z,95206.19
2019-04-21T22:43:39.929Z,95199.58
2019-04-21T22:48:36.691Z,95203.25
2019-04-21T22:53:44.551Z,95198.20
2019-04-21T22:58:44.816Z,95198.91
2019-04-21T23:03:53.051Z,95193.30
2019-04-21T23:08:51.216Z,95189.13
2019-04-21T23:14:02.056Z,95186.87
2019-04-21T23:19:15.700Z,95177.36
2019-04-21T23:24:26.356Z,95176.16
2019-04-21T23:29:25.785Z,95178.06
2019-04-21T23:34:11.542Z,95173.39
2019-04-21T23:39:21.070Z,95171.19
2019-04-21T23:44:18.806Z,95176.93
2019-04-21T23:49:34.070Z,95166.42
2019-04-21T23:54:25.196Z,95170.20
2019-04-21T23:59:32.381Z,95166.16
